Time;durP1;ratioP1;P1;durP2;ratioP2;P2;SDS_P1;SDS_P2;PMS_P1;PMS_P2;Temp;Humidity;BMP_temperature;BMP_pressure;BME280_temperature;BME280_humidity;BME280_pressure;Samples;Min_cycle;Max_cycle;Signal;HPM_P1;HPM_P2
2023/05/10 00:00:04;;;;;;;0.10;0.10;;;13.40;99.90;;;13.67;100.00;100222.81;4983414;28;20240;-77
2023/05/10 00:02:32;;;;;;;0.00;0.00;;;;;;;13.66;100.00;100226.38;4982400;28;20698;-76
2023/05/10 00:04:59;;;;;;;0.10;0.10;;;;;;;13.66;100.00;100215.75;4983415;28;20335;-77
2023/05/10 00:07:26;;;;;;;0.03;0.03;;;13.40;99.90;;;13.67;100.00;100227.25;4984298;28;20320;-76
2023/05/10 00:09:53;;;;;;;0.10;0.10;;;13.40;99.90;;;13.63;100.00;100220.19;4983003;28;20343;-77
2023/05/10 00:12:21;;;;;;;0.00;0.00;;;;;;;13.60;100.00;100222.88;4987491;28;20369;-77
2023/05/10 00:14:48;;;;;;;0.05;0.05;;;13.40;99.90;;;13.64;100.00;100221.97;4982501;28;20311;-77
2023/05/10 00:17:15;;;;;;;0.10;0.10;;;13.40;99.90;;;13.62;100.00;100219.31;4977351;28;20287;-77
2023/05/10 00:19:41;;;;;;;0.08;0.08;;;11.60;99.90;;;13.62;100.00;100213.13;4977003;28;20232;-77
2023/05/10 00:22:10;;;;;;;1.08;0.47;;;;;;;13.58;100.00;100222.88;4985916;28;20662;-77
2023/05/10 00:24:37;;;;;;;0.00;0.00;;;13.30;99.90;;;13.58;100.00;100217.56;4983514;28;20239;-77
2023/05/10 00:27:04;;;;;;;0.10;0.10;;;13.30;99.90;;;13.56;100.00;100207.84;4974888;28;20316;-77
2023/05/10 00:29:31;;;;;;;0.20;0.20;;;13.30;99.90;;;13.57;100.00;100214.94;4982104;28;20660;-77
2023/05/10 00:31:58;;;;;;;0.10;0.10;;;13.30;99.90;;;13.56;100.00;100211.38;4983026;28;20287;-78
2023/05/10 00:34:25;;;;;;;0.38;0.20;;;13.30;99.90;;;13.53;100.00;100214.06;4987249;28;20236;-77
2023/05/10 00:36:52;;;;;;;0.00;0.00;;;13.30;99.90;;;13.57;100.00;100222.91;4989681;28;20264;-77
2023/05/10 00:39:20;;;;;;;0.00;0.00;;;;;;;13.57;100.00;100222.91;4981955;28;20326;-77
2023/05/10 00:41:47;;;;;;;0.00;0.00;;;13.30;99.90;;;13.55;100.00;100220.25;4976305;28;20267;-77
2023/05/10 00:44:14;;;;;;;0.00;0.00;;;13.30;99.90;;;13.52;100.00;100209.66;4987652;28;20237;-77
2023/05/10 00:46:41;;;;;;;0.10;0.10;;;13.30;99.90;;;13.54;100.00;100215.84;4981688;28;20236;-77
2023/05/10 00:49:09;;;;;;;0.10;0.10;;;;;;;13.57;100.00;100220.25;4980469;28;20676;-77
2023/05/10 00:51:36;;;;;;;0.00;0.00;;;13.30;99.90;;;13.55;100.00;100220.25;4980427;28;20253;-77
2023/05/10 00:54:03;;;;;;;0.10;0.10;;;13.30;99.90;;;13.53;100.00;100219.38;4980929;28;20697;-77
2023/05/10 00:56:30;;;;;;;0.10;0.10;;;13.30;99.90;;;13.54;100.00;100215.84;4985732;28;20298;-79
2023/05/10 00:58:57;;;;;;;0.08;0.08;;;13.30;99.90;;;13.52;100.00;100214.97;4987722;28;20232;-79
2023/05/10 01:01:25;;;;;;;0.03;0.03;;;13.20;99.90;;;13.53;100.00;100215.84;4981514;28;20533;-77
2023/05/10 01:03:53;;;;;;;0.00;0.00;;;13.30;99.90;;;13.56;100.00;100215.81;4985569;28;20231;-77
2023/05/10 01:06:20;;;;;;;0.20;0.20;;;13.30;99.90;;;13.53;100.00;100211.41;4978728;28;20302;-77
2023/05/10 01:08:47;;;;;;;0.00;0.00;;;13.30;99.90;;;13.55;100.00;100216.72;4978768;28;20279;-77
2023/05/10 01:11:15;;;;;;;0.00;0.00;;;13.30;99.90;;;13.54;100.00;100209.63;4984998;28;20260;-77
2023/05/10 01:13:47;;;;;;;0.00;0.00;;;13.30;99.90;;;13.53;100.00;100214.06;4977526;28;20241;-78
2023/05/10 01:16:14;;;;;;;0.00;0.00;;;13.30;99.90;;;13.53;100.00;100210.53;4981687;28;20696;-79
2023/05/10 01:18:42;;;;;;;0.00;0.00;;;13.30;99.90;;;13.54;100.00;100217.59;4979167;28;20240;-77
2023/05/10 01:21:33;;;;;;;0.05;0.05;;;13.30;99.90;;;13.51;100.00;100207.88;4981090;28;20240;-77
2023/05/10 01:24:17;;;;;;;0.00;0.00;;;13.30;99.90;;;13.52;100.00;100208.75;4976874;28;20239;-77
2023/05/10 01:27:17;;;;;;;0.00;0.00;;;13.20;99.90;;;13.48;100.00;100207.03;4977092;28;20646;-77
2023/05/10 01:30:06;;;;;;;0.40;0.40;;;13.20;99.90;;;13.48;100.00;100213.22;4978147;28;20352;-77
2023/05/10 01:33:09;;;;;;;0.10;0.10;;;13.20;99.90;;;13.46;100.00;100212.34;4984070;28;20244;-77
2023/05/10 01:36:03;;;;;;;0.10;0.10;;;13.20;99.90;;;13.44;100.00;100209.69;4984414;28;20232;-78
2023/05/10 01:38:53;;;;;;;0.00;0.00;;;13.20;99.90;;;13.46;100.00;100212.34;4983190;28;20318;-77
2023/05/10 01:41:51;;;;;;;0.00;0.00;;;13.20;99.90;;;13.49;100.00;100214.09;4977739;28;20291;-78
2023/05/10 01:44:47;;;;;;;0.10;0.10;;;13.20;99.90;;;13.50;100.00;100222.06;4974517;28;20259;-78
2023/05/10 01:47:42;;;;;;;0.03;0.03;;;13.20;99.90;;;13.42;100.00;100208.81;4974700;28;20267;-77
2023/05/10 01:50:22;;;;;;;0.00;0.00;;;13.10;99.90;;;13.39;100.00;100211.50;4984070;28;20232;-77
2023/05/10 01:52:55;;;;;;;0.00;0.00;;;13.10;99.90;;;13.41;100.00;100222.13;4984786;28;20656;-77
2023/05/10 01:55:28;;;;;;;0.00;0.00;;;13.20;99.90;;;13.39;100.00;100227.44;4988186;28;20236;-77
2023/05/10 01:58:13;;;;;;;0.10;0.10;;;13.20;99.90;;;13.42;100.00;100222.09;4982126;28;20245;-77
2023/05/10 02:00:44;;;;;;;0.00;0.00;;;13.10;99.90;;;13.41;100.00;100224.78;4987260;28;20613;-77
2023/05/10 02:03:13;;;;;;;0.00;0.00;;;13.10;99.90;;;13.42;100.00;100238.03;4978205;28;20247;-78
2023/05/10 02:05:44;;;;;;;0.00;0.00;;;13.10;99.90;;;13.41;100.00;100240.72;4982007;28;20256;-77
2023/05/10 02:08:13;;;;;;;0.00;0.00;;;13.10;99.90;;;13.38;100.00;100230.09;4979436;28;20245;-78
2023/05/10 02:10:42;;;;;;;0.10;0.10;;;13.10;99.90;;;13.37;100.00;100236.31;4965604;28;20237;-77
2023/05/10 02:13:11;;;;;;;0.00;0.00;;;13.20;99.90;;;13.38;100.00;100243.38;4990053;28;20264;-77
2023/05/10 02:15:40;;;;;;;0.10;0.10;;;13.10;99.90;;;13.40;100.00;100238.94;4983230;28;20256;-78
2023/05/10 02:18:09;;;;;;;0.20;0.20;;;13.10;99.90;;;13.41;100.00;100230.09;4982457;28;20244;-77
2023/05/10 02:20:37;;;;;;;0.10;0.10;;;13.10;99.90;;;13.36;100.00;100226.56;4984938;28;20236;-78
2023/05/10 02:23:07;;;;;;;0.10;0.10;;;13.10;99.90;;;13.34;100.00;100234.53;4988018;28;20300;-77
2023/05/10 02:25:35;;;;;;;0.00;0.00;;;13.20;99.90;;;13.38;100.00;100243.38;4979429;28;20319;-77
2023/05/10 02:28:05;;;;;;;0.00;0.00;;;13.10;99.90;;;13.38;100.00;100244.25;4983074;28;20272;-77
2023/05/10 02:30:34;;;;;;;0.00;0.00;;;13.20;99.90;;;13.43;100.00;100246.91;4984831;28;20271;-77
2023/05/10 02:33:04;;;;;;;0.00;0.00;;;13.10;99.90;;;13.38;100.00;100238.94;4967987;28;20283;-78
2023/05/10 02:35:33;;;;;;;0.55;0.55;;;13.20;99.90;;;13.39;100.00;100243.38;4991089;28;20271;-79
2023/05/10 02:38:01;;;;;;;0.00;0.00;;;13.20;99.90;;;13.46;100.00;100241.56;4980067;28;20286;-78
2023/05/10 02:40:29;;;;;;;0.08;0.08;;;13.20;99.90;;;13.46;100.00;100236.25;4989663;28;20244;-78
2023/05/10 02:42:59;;;;;;;0.00;0.00;;;13.30;99.90;;;13.42;100.00;100231.84;4985098;28;20315;-77
2023/05/10 02:45:30;;;;;;;0.00;0.00;;;13.20;99.90;;;13.44;100.00;100235.38;4986521;28;20295;-78
2023/05/10 02:47:59;;;;;;;0.00;0.00;;;13.20;99.90;;;13.41;100.00;100233.63;4985847;28;20232;-77
2023/05/10 02:50:28;;;;;;;0.10;0.10;;;13.10;99.90;;;13.38;100.00;100232.75;4988975;28;20299;-78
2023/05/10 02:53:02;;;;;;;0.00;0.00;;;13.10;99.90;;;13.35;100.00;100241.63;4983819;28;20260;-78
2023/05/10 02:55:36;;;;;;;0.00;0.00;;;13.10;99.90;;;13.33;100.00;100240.75;4987482;28;20263;-78
2023/05/10 02:58:05;;;;;;;0.00;0.00;;;13.10;99.90;;;13.32;100.00;100238.97;4979278;28;20236;-77
2023/05/10 03:00:32;;;;;;;0.00;0.00;;;13.00;99.90;;;13.26;100.00;100243.44;4978639;28;20288;-77
2023/05/10 03:03:00;;;;;;;0.13;0.13;;;13.00;99.90;;;13.28;100.00;100246.97;4987095;28;20291;-78
2023/05/10 03:05:27;;;;;;;0.00;0.00;;;13.00;99.90;;;13.29;100.00;100243.44;4986005;28;20287;-76
2023/05/10 03:07:55;;;;;;;0.00;0.00;;;13.00;99.90;;;13.27;100.00;100237.25;4987491;28;20244;-77
2023/05/10 03:10:29;;;;;;;0.00;0.00;;;13.00;99.90;;;13.25;100.00;100247.00;4992135;28;20237;-77
2023/05/10 03:13:13;;;;;;;0.00;0.00;;;13.00;99.90;;;13.25;100.00;100241.69;4973326;28;20681;-79
2023/05/10 03:16:08;;;;;;;0.00;0.00;;;13.00;99.90;;;13.24;100.00;100242.56;4986628;28;20254;-76
2023/05/10 03:19:13;;;;;;;0.00;0.00;;;13.10;99.90;;;13.27;100.00;100243.44;4991305;28;20314;-77
2023/05/10 03:21:47;;;;;;;0.30;0.30;;;13.00;99.90;;;13.29;100.00;100238.13;4965171;28;20247;-77
2023/05/10 03:24:16;;;;;;;0.10;0.10;;;13.00;99.90;;;13.26;100.00;100231.03;4973055;28;20332;-77
2023/05/10 03:26:45;;;;;;;0.10;0.10;;;13.00;99.90;;;13.27;100.00;100234.59;4971147;28;20291;-78
2023/05/10 03:29:14;;;;;;;0.45;0.45;;;13.00;99.90;;;13.27;100.00;100237.25;4975735;28;20225;-78
2023/05/10 03:31:41;;;;;;;0.10;0.10;;;13.00;99.90;;;13.22;100.00;100225.75;4979332;28;20279;-78
2023/05/10 03:34:09;;;;;;;0.10;0.10;;;12.90;99.90;;;13.20;100.00;100223.13;4980170;28;20283;-78
2023/05/10 03:36:36;;;;;;;0.00;0.00;;;13.00;99.90;;;13.20;100.00;100211.63;4974995;28;20241;-77
2023/05/10 03:39:03;;;;;;;0.00;0.00;;;12.90;99.90;;;13.18;100.00;100213.38;4979842;28;20272;-78
2023/05/10 03:41:30;;;;;;;0.00;0.00;;;12.90;99.90;;;13.12;100.00;100198.34;4972740;28;20241;-78
2023/05/10 03:43:58;;;;;;;0.10;0.10;;;;;;;13.09;100.00;100207.19;4979530;28;20312;-78
2023/05/10 03:46:25;;;;;;;0.00;0.00;;;12.90;99.90;;;13.17;100.00;100215.16;4972327;28;20268;-79
2023/05/10 03:48:52;;;;;;;0.00;0.00;;;13.00;99.90;;;13.14;100.00;100215.16;4974254;28;20236;-77
2023/05/10 03:51:19;;;;;;;0.10;0.10;;;12.90;99.90;;;13.10;100.00;100213.41;4978649;28;20240;-78
2023/05/10 03:53:46;;;;;;;0.10;0.10;;;12.90;99.90;;;13.07;100.00;100216.94;4981302;28;20278;-78
2023/05/10 03:56:13;;;;;;;0.00;0.00;;;12.80;99.90;;;13.04;100.00;100208.13;4975202;28;20778;-78
2023/05/10 03:58:40;;;;;;;0.00;0.00;;;12.80;99.90;;;12.98;100.00;100216.06;4983628;28;20300;-79
2023/05/10 04:01:07;;;;;;;0.10;0.10;;;12.70;99.90;;;12.93;100.00;100216.09;4980325;28;20416;-79
2023/05/10 04:03:36;;;;;;;0.10;0.10;;;12.60;99.90;;;12.97;100.00;100222.28;4983209;28;20295;-80
2023/05/10 04:06:04;;;;;;;0.00;0.00;;;12.70;99.90;;;12.97;100.00;100228.47;4979936;28;20240;-79
2023/05/10 04:08:31;;;;;;;0.00;0.00;;;12.80;99.90;;;12.94;100.00;100236.44;4988643;28;20255;-79
2023/05/10 04:11:09;;;;;;;0.10;0.10;;;12.70;99.90;;;12.95;100.00;100243.50;4982845;28;20252;-79
2023/05/10 04:13:37;;;;;;;0.10;0.10;;;12.80;99.90;;;13.07;100.00;100246.16;4972484;28;20240;-80
2023/05/10 04:16:05;;;;;;;0.10;0.10;;;;;;;13.20;100.00;100251.44;4982299;28;20240;-81
2023/05/10 04:18:33;;;;;;;0.00;0.00;;;13.00;99.90;;;13.14;100.00;100241.69;4982093;28;20274;-81
2023/05/10 04:21:00;;;;;;;0.00;0.00;;;;;;;13.11;100.00;100242.59;4982815;28;20244;-79
2023/05/10 04:23:28;;;;;;;0.10;0.10;;;;;;;13.10;100.00;100239.94;4984780;28;20625;-79
2023/05/10 04:26:02;;;;;;;0.00;0.00;;;12.90;99.90;;;13.10;100.00;100246.13;4978138;28;20233;-78
2023/05/10 04:28:30;;;;;;;0.00;0.00;;;;;;;13.16;100.00;100247.00;4981268;28;20235;-78
2023/05/10 04:31:06;;;;;;;0.00;0.00;;;12.90;99.90;;;13.19;100.00;100249.66;4984966;28;20244;-78
2023/05/10 04:33:35;;;;;;;0.00;0.00;;;;;;;13.24;100.00;100251.41;4984399;28;20244;-80
2023/05/10 04:36:03;;;;;;;0.00;0.00;;;12.90;99.90;;;13.25;100.00;100247.00;4981904;28;20236;-79
2023/05/10 04:38:30;;;;;;;0.28;0.28;;;;;;;13.26;100.00;100240.78;4985462;28;20666;-79
2023/05/10 04:41:08;;;;;;;0.00;0.00;;;13.00;99.90;;;13.23;100.00;100240.81;4981383;28;20307;-78
2023/05/10 04:43:37;;;;;;;0.10;0.10;;;13.00;99.90;;;13.17;100.00;100235.53;4983072;28;20240;-78
2023/05/10 04:46:05;;;;;;;0.10;0.10;;;;;;;13.15;100.00;100232.84;4981610;28;20239;-78
2023/05/10 04:48:32;;;;;;;0.00;0.00;;;12.90;99.90;;;13.15;100.00;100235.50;4975657;28;20233;-77
2023/05/10 04:50:59;;;;;;;0.10;0.10;;;12.90;99.90;;;13.14;100.00;100241.69;4977211;28;20241;-78
2023/05/10 04:53:27;;;;;;;0.22;0.22;;;12.90;99.90;;;13.13;100.00;100245.25;4978545;28;20649;-78
2023/05/10 04:55:54;;;;;;;0.10;0.10;;;12.80;99.90;;;13.06;100.00;100255.00;4981552;28;20311;-78
2023/05/10 04:58:21;;;;;;;0.00;0.00;;;12.80;99.90;;;13.10;100.00;100255.88;4991328;28;20231;-78
2023/05/10 05:00:48;;;;;;;0.00;0.00;;;12.80;99.90;;;13.07;100.00;100262.06;4982041;28;20319;-77
2023/05/10 05:03:15;;;;;;;0.17;0.17;;;12.80;99.90;;;13.11;100.00;100270.91;4973148;28;20294;-78
2023/05/10 05:05:44;;;;;;;0.30;0.30;;;12.80;99.90;;;13.11;100.00;100270.91;4985911;28;20236;-78
2023/05/10 05:08:11;;;;;;;0.30;0.30;;;12.80;99.90;;;13.08;100.00;100277.13;4980035;28;20232;-77
2023/05/10 05:10:38;;;;;;;0.20;0.20;;;12.80;99.90;;;13.16;100.00;100287.72;4988915;28;20267;-77
2023/05/10 05:13:05;;;;;;;0.10;0.10;;;12.90;99.90;;;13.25;100.00;100295.66;4976054;28;20232;-77
2023/05/10 05:15:33;;;;;;;0.10;0.10;;;13.00;99.90;;;13.28;100.00;100302.75;4979740;28;20236;-77
2023/05/10 05:18:00;;;;;;;0.00;0.00;;;13.00;99.90;;;13.33;100.00;100315.13;4975508;28;20307;-79
2023/05/10 05:20:27;;;;;;;0.00;0.00;;;13.00;99.90;;;13.43;100.00;100322.16;4979790;28;20276;-79
2023/05/10 05:22:54;;;;;;;0.30;0.30;;;13.10;99.90;;;13.51;100.00;100334.53;4988794;28;20229;-79
2023/05/10 05:25:21;;;;;;;0.10;0.10;;;13.10;99.90;;;13.57;100.00;100339.81;4988902;28;20326;-80
2023/05/10 05:27:48;;;;;;;0.10;0.10;;;13.20;99.90;;;13.59;100.00;100344.22;4984932;28;20713;-79
2023/05/10 05:30:16;;;;;;;0.00;0.00;;;13.30;99.90;;;13.59;100.00;100338.03;4989158;28;20241;-78
2023/05/10 05:32:43;;;;;;;0.00;0.00;;;13.30;99.90;;;13.67;100.00;100339.75;4988330;28;20267;-79
2023/05/10 05:35:10;;;;;;;0.10;0.10;;;13.30;99.90;;;13.65;100.00;100344.19;4979947;28;20248;-78
2023/05/10 05:37:38;;;;;;;0.00;0.00;;;13.30;99.90;;;13.69;100.00;100337.09;4984995;28;20312;-79
2023/05/10 05:40:06;;;;;;;0.10;0.10;;;13.40;99.90;;;13.66;100.00;100334.44;4984721;28;20287;-78
2023/05/10 05:42:33;;;;;;;0.00;0.00;;;13.40;99.90;;;13.74;100.00;100348.56;4974790;28;20229;-80
2023/05/10 05:45:00;;;;;;;0.00;0.00;;;13.50;99.90;;;13.81;100.00;100350.31;4981761;28;20282;-78
2023/05/10 05:47:27;;;;;;;0.00;0.00;;;13.60;99.90;;;13.84;100.00;100344.97;4987677;28;20229;-78
2023/05/10 05:49:55;;;;;;;0.03;0.03;;;;;;;13.91;100.00;100341.38;4985215;28;20252;-81
2023/05/10 05:52:22;;;;;;;0.00;0.00;;;13.70;99.90;;;13.96;100.00;100334.25;4984798;28;20363;-78
2023/05/10 05:54:49;;;;;;;0.00;0.00;;;13.80;99.90;;;14.03;100.00;100340.44;4982152;28;20236;-79
2023/05/10 05:57:16;;;;;;;0.00;0.00;;;13.80;99.90;;;14.12;100.00;100328.84;4980451;28;20239;-78
2023/05/10 05:59:44;;;;;;;0.20;0.20;;;;;;;14.17;100.00;100319.06;4977482;28;20232;-78
2023/05/10 06:02:11;;;;;;;0.10;0.10;;;13.90;99.90;;;14.16;100.00;100315.50;4978108;28;20256;-77
2023/05/10 06:04:38;;;;;;;0.10;0.10;;;13.90;99.90;;;14.21;100.00;100316.38;4978052;28;20228;-77
2023/05/10 06:07:10;;;;;;;0.00;0.00;;;13.90;99.90;;;14.20;100.00;100311.94;4992469;28;20256;-77
2023/05/10 06:09:37;;;;;;;0.00;0.00;;;14.00;99.90;;;14.27;100.00;100315.44;4972698;28;20288;-78
2023/05/10 06:12:04;;;;;;;0.00;0.00;;;;;;;14.39;100.00;100304.72;4971363;23;20229;-83
2023/05/10 06:14:32;;;;;;;0.00;0.00;;;;;;;14.45;100.00;100290.50;4949737;28;20226;-80
2023/05/10 06:16:59;;;;;;;0.00;0.00;;;;;;;14.52;100.00;100289.56;4956541;28;20250;-82
2023/05/10 06:19:27;;;;;;;0.30;0.30;;;;;;;14.55;100.00;100281.56;4952477;28;20230;-81
2023/05/10 06:21:54;;;;;;;0.00;0.00;;;14.40;99.90;;;14.83;100.00;100301.66;4932882;29;20316;-81
2023/05/10 06:24:21;;;;;;;0.00;0.00;;;14.50;99.90;;;14.75;100.00;100281.34;4921506;28;20708;-83
2023/05/10 06:26:49;;;;;;;0.00;0.00;;;14.40;99.90;;;14.69;100.00;100279.63;4923446;29;20271;-79
2023/05/10 06:29:17;;;;;;;0.00;0.00;;;;;;;14.63;100.00;100256.63;4934041;28;20246;-78
2023/05/10 06:31:44;;;;;;;0.10;0.10;;;14.30;99.90;;;14.56;100.00;100244.28;4931291;28;20234;-78
2023/05/10 06:34:12;;;;;;;0.25;0.25;;;17.40;99.90;;;14.58;100.00;100228.28;4932475;28;20342;-80
2023/05/10 06:36:39;;;;;;;0.00;0.00;;;14.30;99.90;;;14.54;100.00;100227.44;4927512;29;20333;-80
2023/05/10 06:39:06;;;;;;;0.10;0.10;;;14.40;99.90;;;14.62;100.00;100233.56;4925115;28;20302;-78
2023/05/10 06:41:33;;;;;;;0.00;0.00;;;14.30;99.90;;;14.52;100.00;100218.59;4926912;29;20242;-80
2023/05/10 06:44:00;;;;;;;0.00;0.00;;;14.20;99.90;;;14.52;100.00;100223.03;4934625;29;20242;-79
2023/05/10 06:46:27;;;;;;;0.00;0.00;;;14.30;99.90;;;14.56;100.00;100215.00;4934064;29;20226;-82
2023/05/10 06:48:54;;;;;;;0.00;0.00;;;14.30;99.90;;;14.55;100.00;100212.38;4927239;28;20248;-81
2023/05/10 06:51:21;;;;;;;0.10;0.10;;;14.30;99.90;;;14.57;100.00;100218.56;4923337;29;20259;-79
2023/05/10 06:53:49;;;;;;;0.00;0.00;;;;;;;14.44;100.00;100185.88;4927597;28;20262;-79
2023/05/10 06:56:16;;;;;;;0.00;0.00;;;;;;;14.58;100.00;100199.91;4925362;29;20239;-78
2023/05/10 06:58:44;;;;;;;0.00;0.00;;;;;;;14.68;100.00;100190.03;4931908;28;20242;-81
2023/05/10 07:01:11;;;;;;;0.00;0.00;;;14.50;99.90;;;14.85;100.00;100204.03;4926321;29;20239;-82
2023/05/10 07:03:38;;;;;;;0.10;0.10;;;14.60;99.90;;;14.91;100.00;100187.97;4921089;29;20270;-81
2023/05/10 07:06:07;;;;;;;0.08;0.08;;;14.60;99.90;;;14.90;100.00;100167.59;4919173;29;20255;-82
2023/05/10 07:08:42;;;;;;;0.00;0.00;;;;;;;14.99;100.00;100145.28;4918399;29;20238;-81
2023/05/10 07:11:10;;;;;;;0.00;0.00;;;14.80;99.90;;;15.05;100.00;100145.19;4928348;28;20317;-79
2023/05/10 07:13:38;;;;;;;0.00;0.00;;;;;;;15.06;100.00;100133.63;4924499;28;20227;-84
2023/05/10 07:16:07;;;;;;;0.05;0.05;;;;;;;15.12;100.00;100127.34;4931252;29;20270;-81
2023/05/10 07:18:34;;;;;;;0.00;0.00;;;14.90;99.90;;;15.27;100.00;100117.34;4931258;28;20270;-82
2023/05/10 07:21:02;;;;;;;0.10;0.10;;;;;;;15.49;100.00;100128.53;4929311;29;20266;-86
2023/05/10 07:23:29;;;;;;;0.00;0.00;;;15.20;99.90;;;15.60;100.00;100126.66;4928380;28;20603;-82
2023/05/10 07:25:57;;;;;;;0.00;0.00;;;;;;;15.63;100.00;100115.06;4936924;28;20336;-83
2023/05/10 07:28:25;;;;;;;0.00;0.00;;;;;;;15.75;100.00;100121.97;4936549;29;20239;-83
2023/05/10 07:30:52;;;;;;;0.00;0.00;;;;;;;15.70;100.00;100111.38;4925020;29;20235;-85
2023/05/10 07:33:20;;;;;;;0.00;0.00;;;;;;;15.61;100.00;100096.44;4924724;28;20234;-84
2023/05/10 07:35:49;;;;;;;0.00;0.00;;;;;;;15.68;100.00;100089.22;4930249;29;20237;-84
2023/05/10 07:38:17;;;;;;;0.00;0.00;;;;;;;15.52;100.00;100051.22;4919068;29;20246;-84
2023/05/10 07:40:44;;;;;;;0.00;0.00;;;;;;;15.76;100.00;100068.63;4929374;29;20234;-82
2023/05/10 07:43:12;;;;;;;0.13;0.13;;;;;;;15.61;100.00;100043.13;4928424;28;20233;-83
2023/05/10 07:45:39;;;;;;;0.00;0.00;;;;;;;15.54;100.00;100035.19;4923440;28;20238;-85
2023/05/10 07:48:07;;;;;;;0.00;0.00;;;;;;;15.43;100.00;100035.38;4925496;29;20314;-83
2023/05/10 07:50:34;;;;;;;0.00;0.00;;;;;;;15.45;100.00;100038.91;4923151;29;20262;-84
2023/05/10 07:53:02;;;;;;;0.10;0.10;;;;;;;15.40;100.00;100027.44;4930348;29;20238;-87
2023/05/10 07:55:29;;;;;;;0.00;0.00;;;;;;;15.52;100.00;100031.69;4925479;29;20660;-83
2023/05/10 07:57:57;;;;;;;0.10;0.10;;;;;;;15.52;100.00;100021.00;4924135;29;20248;-84
2023/05/10 08:00:25;;;;;;;0.00;0.00;;;;;;;15.64;100.00;100036.84;4923262;29;20242;-83
2023/05/10 08:02:53;;;;;;;0.15;0.15;;;;;;;15.68;100.00;100023.44;4925862;29;20314;-85
2023/05/10 08:05:20;;;;;;;0.00;0.00;;;;;;;15.50;100.00;100009.50;4924883;29;20269;-83
2023/05/10 08:07:47;;;;;;;0.00;0.00;;;;;;;15.59;100.00;100020.03;4931912;28;20234;-83
2023/05/10 08:10:16;;;;;;;0.00;0.00;;;;;;;15.46;100.00;100007.78;4927666;28;20292;-83
2023/05/10 08:12:44;;;;;;;0.00;0.00;;;;;;;15.45;100.00;99995.38;4920309;29;20235;-83
2023/05/10 08:15:12;;;;;;;0.00;0.00;;;;;;;15.56;100.00;100012.94;4926791;28;20246;-86
2023/05/10 08:17:39;;;;;;;0.00;0.00;;;;;;;15.76;100.00;100054.41;4931381;29;20246;-84
2023/05/10 08:20:07;;;;;;;0.00;0.00;;;;;;;15.73;100.00;100044.69;4933061;29;20321;-83
2023/05/10 08:22:35;;;;;;;0.00;0.00;;;;;;;15.70;100.00;100014.53;4916657;29;20242;-86
2023/05/10 08:25:03;;;;;;;0.00;0.00;;;;;;;15.83;100.00;100011.63;4918997;29;20243;-83
2023/05/10 08:27:30;;;;;;;0.00;0.00;;;15.60;99.90;;;15.97;100.00;100009.56;4923497;29;20303;-85
2023/05/10 08:29:57;;;;;;;0.00;0.00;;;15.80;99.90;;;16.11;100.00;100035.94;4930849;28;20241;-84
2023/05/10 08:32:24;;;;;;;0.00;0.00;;;15.70;99.90;;;16.01;100.00;99983.72;4924919;29;20694;-83
2023/05/10 08:34:51;;;;;;;0.00;0.00;;;;;;;16.17;100.00;99986.94;4925227;29;20231;-84
2023/05/10 08:37:19;;;;;;;0.00;0.00;;;16.00;99.90;;;16.50;100.00;100007.56;4924393;29;20615;-84
2023/05/10 08:39:47;;;;;;;0.00;0.00;;;;;;;16.54;100.00;99976.34;4923297;29;20238;-82
2023/05/10 08:42:22;;;;;;;0.10;0.10;;;16.20;99.90;;;16.55;100.00;99938.94;4930755;29;20774;-83
2023/05/10 08:44:50;;;;;;;0.00;0.00;;;16.10;99.90;;;16.45;100.00;99909.81;4925709;29;20253;-83
2023/05/10 08:47:19;;;;;;;0.00;0.00;;;16.20;99.90;;;16.54;100.00;99904.25;4942431;28;20234;-83
2023/05/10 08:49:50;;;;;;;0.00;0.00;;;16.00;99.90;;;16.13;100.00;99886.53;4919093;29;20239;-84
2023/05/10 08:52:18;;;;;;;0.00;0.00;;;15.70;99.90;;;15.83;100.00;99856.09;4945819;28;20293;-83
2023/05/10 08:54:46;;;;;;;0.00;0.00;;;;;;;15.60;100.00;99851.22;4931272;28;20698;-82
2023/05/10 08:57:13;;;;;;;0.00;0.00;;;15.30;99.90;;;15.45;100.00;99854.16;4927692;29;20285;-82
2023/05/10 08:59:41;;;;;;;0.00;0.00;;;;;;;15.49;100.00;99887.84;4928030;28;20230;-83
2023/05/10 09:02:11;;;;;;;0.00;0.00;;;15.10;99.90;;;15.32;100.00;99875.72;4934195;29;20242;-83
2023/05/10 09:04:39;;;;;;;0.00;0.00;;;;;;;15.49;100.00;99907.38;4928797;28;20245;-84
2023/05/10 09:07:07;;;;;;;0.00;0.00;;;15.30;99.90;;;15.59;100.00;99924.09;4929553;28;20242;-83
2023/05/10 09:09:36;;;;;;;0.00;0.00;;;15.40;99.90;;;15.76;100.00;99929.13;4927457;28;20230;-84
2023/05/10 09:12:04;;;;;;;0.00;0.00;;;;;;;15.81;100.00;99924.56;4929635;29;20246;-89
2023/05/10 09:14:31;;;;;;;0.00;0.00;;;;;;;15.90;100.00;99943.91;4926007;29;20265;-84
2023/05/10 09:16:59;;;;;;;0.10;0.10;;;;;;;15.84;100.00;99905.84;4910833;29;20242;-83
2023/05/10 09:19:27;;;;;;;0.00;0.00;;;;;;;15.92;100.00;99909.22;4917010;29;20235;-83
2023/05/10 09:21:55;;;;;;;0.25;0.25;;;;;;;15.87;100.00;99889.78;4934337;29;20245;-84
2023/05/10 09:24:28;;;;;;;0.00;0.00;;;15.70;99.90;;;15.94;100.00;99894.06;4930319;28;20230;-85
2023/05/10 09:26:58;;;;;;;0.45;0.45;;;15.70;99.90;;;15.96;100.00;99881.59;4922088;29;20238;-83
2023/05/10 09:29:25;;;;;;;0.00;0.00;;;;;;;16.00;100.00;99893.94;4930382;28;20238;-87
2023/05/10 09:31:56;;;;;;;0.00;0.00;;;;;;;15.83;100.00;99867.63;4929267;28;20262;-85
2023/05/10 09:34:31;;;;;;;0.00;0.00;;;15.50;99.90;;;15.77;100.00;99857.09;4930467;29;20286;-85
2023/05/10 09:37:02;;;;;;;0.00;0.00;;;15.50;99.90;;;15.77;100.00;99866.88;4926564;29;20733;-86
2023/05/10 09:39:36;;;;;;;0.00;0.00;;;15.60;99.90;;;15.83;100.00;99866.75;4928742;28;20289;-84
2023/05/10 09:42:09;;;;;;;0.00;0.00;;;15.40;99.90;;;15.67;100.00;99852.88;4925590;28;20231;-86
2023/05/10 09:44:38;;;;;;;0.15;0.15;;;;;;;15.73;100.00;99833.22;4929510;28;20272;-84
2023/05/10 09:47:05;;;;;;;0.00;0.00;;;;;;;15.57;100.00;99812.19;4926766;29;20246;-83
2023/05/10 09:49:35;;;;;;;0.00;0.00;;;;;;;15.68;100.00;99811.97;4928208;28;20238;-82
2023/05/10 09:52:08;;;;;;;0.00;0.00;;;15.30;99.90;;;15.67;100.00;99810.22;4917867;28;20241;-84
2023/05/10 09:54:36;;;;;;;0.00;0.00;;;;;;;15.99;100.00;99804.16;4950421;28;20299;-83
2023/05/10 09:57:03;;;;;;;0.00;0.00;;;;;;;15.84;100.00;99767.19;4953922;28;20317;-83
2023/05/10 09:59:34;;;;;;;0.00;0.00;;;15.60;99.90;;;15.91;100.00;99761.69;4954722;28;20636;-83
2023/05/10 10:02:02;;;;;;;0.00;0.00;;;;;;;16.14;100.00;99763.81;4959314;28;20268;-83
2023/05/10 10:04:30;;;;;;;0.00;0.00;;;;;;;16.44;100.00;99775.50;4969465;28;20233;-84
2023/05/10 10:07:04;;;;;;;0.00;0.00;;;16.10;99.90;;;16.41;100.00;99718.66;4965492;28;20229;-83
2023/05/10 10:09:33;;;;;;;0.00;0.00;;;16.20;99.90;;;16.49;100.00;99687.31;4961737;28;20288;-83
2023/05/10 10:12:02;;;;;;;0.00;0.00;;;16.30;99.90;;;16.66;100.00;99702.91;4945582;29;20242;-83
2023/05/10 10:14:32;;;;;;;0.00;0.00;;;;;;;16.94;100.00;99703.91;4966005;28;20253;-84
2023/05/10 10:17:01;;;;;;;0.00;0.00;;;16.60;99.90;;;16.76;100.00;99632.31;4966949;28;20260;-82
2023/05/10 10:19:34;;;;;;;0.00;0.00;;;16.60;99.90;;;16.96;100.00;99646.00;4967849;28;20232;-82
2023/05/10 10:22:02;;;;;;;0.00;0.00;;;;;;;17.23;100.00;99698.59;4947716;28;20233;-84
2023/05/10 10:24:30;;;;;;;0.10;0.10;;;16.90;99.90;;;17.31;100.00;99658.28;4959415;28;20232;-83
2023/05/10 10:27:07;;;;;;;0.17;0.17;;;17.10;99.90;;;17.57;100.00;99641.44;4958881;28;20242;-83
2023/05/10 10:29:48;;;;;;;0.00;0.00;;;17.00;99.90;;;17.23;100.00;99609.56;4961911;28;20273;-82
2023/05/10 10:32:42;;;;;;;0.00;0.00;;;17.00;99.90;;;17.28;100.00;99645.91;4976898;28;20241;-83
2023/05/10 10:35:10;;;;;;;0.00;0.00;;;;;;;17.12;100.00;99635.72;4958618;28;20317;-82
2023/05/10 10:37:50;;;;;;;0.00;0.00;;;16.80;99.90;;;17.01;100.00;99574.63;4951086;28;20237;-83